Time;durP1;ratioP1;P1;durP2;ratioP2;P2;SDS_P1;SDS_P2;PMS_P1;PMS_P2;Temp;Humidity;BMP_temperature;BMP_pressure;BME280_temperature;BME280_humidity;BME280_pressure;Samples;Min_cycle;Max_cycle;Signal;HPM_P1;HPM_P2
2021/06/02 00:02:22;;;;;;;38.08;21.00;;;;;;;15.54;61.93;99835.66;5023556;28;20049;-82
2021/06/02 00:04:54;;;;;;;40.10;21.60;;;;;;;15.53;61.50;99834.78;5009603;28;20053;-82
2021/06/02 00:07:22;;;;;;;41.75;24.13;;;;;;;15.59;61.71;99831.09;5005089;28;20052;-81
2021/06/02 00:09:51;;;;;;;40.53;24.15;;;;;;;15.47;61.94;99831.41;5010333;28;20045;-81
2021/06/02 00:12:18;;;;;;;50.75;24.25;;;;;;;15.31;62.60;99822.16;5007795;28;20394;-81
2021/06/02 00:14:45;;;;;;;51.08;25.02;;;;;;;15.05;63.60;99825.41;5020615;28;20084;-81
2021/06/02 00:17:13;;;;;;;48.70;25.80;;;;;;;15.33;62.25;99818.59;5026953;28;20055;-81
2021/06/02 00:19:41;;;;;;;39.83;22.98;;;;;;;15.08;63.19;99823.56;5026522;28;20148;-81
2021/06/02 00:22:08;;;;;;;40.35;23.33;;;;;;;15.14;62.77;99825.19;5027050;28;20049;-81
2021/06/02 00:24:37;;;;;;;46.30;24.58;;;;;;;15.04;63.33;99826.31;5023721;28;20053;-81
2021/06/02 00:27:09;;;;;;;55.03;28.23;;;;;;;15.13;62.99;99828.72;5011452;28;20086;-81
2021/06/02 00:29:37;;;;;;;53.05;28.05;;;;;;;15.00;63.08;99829.91;5023762;28;20045;-81
2021/06/02 00:32:07;;;;;;;52.03;27.90;;;;;;;14.91;63.87;99830.13;5023428;28;20045;-81
2021/06/02 00:34:36;;;;;;;47.88;27.92;;;;;;;14.87;63.56;99831.94;5026493;28;20053;-81
2021/06/02 00:37:08;;;;;;;52.53;28.23;;;;;;;14.44;64.77;99829.38;5025547;28;20139;-82
2021/06/02 00:39:35;;;;;;;50.75;29.13;;;;;;;14.27;65.67;99836.72;5025087;28;20084;-80
2021/06/02 00:42:03;;;;;;;49.80;27.52;;;;;;;14.15;65.76;99827.31;5026693;28;20054;-82
2021/06/02 00:44:30;;;;;;;52.67;28.08;;;;;;;14.33;65.77;99832.22;5012703;28;20100;-80
2021/06/02 00:46:59;;;;;;;50.97;28.85;;;;;;;14.32;65.61;99830.50;5024198;28;20033;-81
2021/06/02 00:49:26;;;;;;;50.53;29.98;;;;;;;14.52;65.01;99816.09;5025781;28;20527;-80
2021/06/02 00:52:04;;;;;;;46.47;28.95;;;;;;;14.66;64.82;99817.53;5019866;28;20046;-81
2021/06/02 00:54:35;;;;;;;51.05;30.13;;;;;;;14.12;66.09;99818.63;5004688;28;20046;-80
2021/06/02 00:57:11;;;;;;;52.95;30.10;;;;;;;13.94;66.83;99814.63;5005757;28;20103;-81
2021/06/02 00:59:49;;;;;;;47.63;28.42;;;;;;;14.02;66.05;99812.69;5016919;28;20050;-81
2021/06/02 01:02:18;;;;;;;52.30;28.88;;;;;;;14.04;66.09;99810.91;5009647;28;20049;-81
2021/06/02 01:04:48;;;;;;;50.55;29.15;;;;;;;14.05;66.33;99810.03;5001810;28;20050;-81
2021/06/02 01:07:14;;;;;;;51.08;29.38;;;;;;;14.14;66.10;99815.09;5011856;28;20508;-82
2021/06/02 01:09:48;;;;;;;54.67;28.58;;;;;;;14.08;66.46;99809.97;5013643;28;20539;-80
2021/06/02 01:12:17;;;;;;;53.58;29.02;;;;;;;14.19;66.24;99815.00;5012298;28;20074;-80
2021/06/02 01:14:45;;;;;;;47.60;30.23;;;;;;;14.14;66.36;99801.09;5021351;28;20065;-82
2021/06/02 01:17:16;;;;;;;55.00;30.85;;;;;;;13.96;66.97;99803.16;5023034;28;20350;-80
2021/06/02 01:19:44;;;;;;;52.05;30.20;;;;;;;13.96;66.76;99797.03;5045164;28;20057;-80
2021/06/02 01:22:11;;;;;;;54.50;30.65;;;;;;;14.04;66.78;99796.91;5029135;28;20833;-80
2021/06/02 01:24:38;;;;;;;52.30;30.60;;;;;;;14.03;66.69;99800.44;5030702;28;20049;-81
2021/06/02 01:27:07;;;;;;;55.20;31.33;;;;;;;14.08;66.02;99795.94;5019848;28;20077;-80
2021/06/02 01:29:38;;;;;;;55.33;29.77;;;;;;;14.01;66.35;99789.06;5008768;28;20141;-80
2021/06/02 01:32:43;;;;;;;63.47;34.80;;;;;;;13.65;68.84;99791.53;5009973;28;20046;-81
2021/06/02 01:35:12;;;;;;;59.70;33.10;;;;;;;13.91;67.85;99777.88;5021440;28;20129;-80
2021/06/02 01:37:45;;;;;;;69.72;33.58;;;;;;;13.92;67.87;99775.22;5015549;28;20054;-82
2021/06/02 01:40:28;;;;;;;57.45;31.98;;;;;;;13.96;67.14;99776.91;5006732;28;20054;-80
2021/06/02 01:43:12;;;;;;;57.70;32.10;;;;;;;14.17;66.80;99777.38;5014012;28;20063;-80
2021/06/02 01:45:58;;;;;;;53.13;31.02;;;;;;;14.00;67.48;99776.84;5030913;28;20085;-80
2021/06/02 01:48:42;;;;;;;60.00;32.42;;;;;;;14.10;67.38;99781.03;5031883;28;20069;-80
2021/06/02 01:51:54;;;;;;;63.17;34.55;;;;;;;13.76;68.30;99786.09;5021987;28;20045;-81
2021/06/02 01:54:40;;;;;;;58.40;32.33;;;;;;;13.88;67.70;99791.94;5014494;28;20050;-80
2021/06/02 01:57:45;;;;;;;64.45;32.83;;;;;;;13.84;67.78;99790.28;5013155;28;20370;-80
2021/06/02 02:00:23;;;;;;;59.08;33.03;;;;;;;13.39;69.64;99793.72;4985738;28;20046;-80
2021/06/02 02:02:52;;;;;;;67.90;36.00;;;;;;;13.28;69.70;99785.19;5011929;28;20073;-80
2021/06/02 02:05:46;;;;;;;68.20;34.80;;;;;;;13.75;68.36;99790.47;5023889;28;20601;-80
2021/06/02 02:08:28;;;;;;;63.97;35.15;;;;;;;13.54;68.98;99783.84;5010259;28;20128;-80
2021/06/02 02:11:05;;;;;;;68.13;35.35;;;;;;;13.16;69.84;99778.38;5046077;28;20558;-80
2021/06/02 02:13:41;;;;;;;63.70;36.45;;;;;;;13.38;69.74;99776.28;5024853;28;20049;-80
2021/06/02 02:16:49;;;;;;;59.90;35.55;;;;;;;13.31;69.40;99775.50;5032487;28;20427;-80
2021/06/02 02:19:25;;;;;;;66.20;36.17;;;;;;;13.44;68.91;99777.00;4998501;28;20047;-81
2021/06/02 02:22:16;;;;;;;66.70;36.83;;;;;;;13.69;68.22;99777.44;5030490;28;20060;-80
2021/06/02 02:24:49;;;;;;;65.88;37.35;;;;;;;13.19;69.94;99770.44;5037363;28;20056;-80
2021/06/02 02:28:03;;;;;;;70.32;38.05;;;;;;;13.38;69.07;99768.41;5041342;28;20124;-79
2021/06/02 02:30:42;;;;;;;69.70;38.80;;;;;;;13.33;68.87;99772.88;4985957;28;20137;-80
2021/06/02 02:33:43;;;;;;;76.07;41.53;;;;;;;13.26;69.78;99771.22;5028378;28;20049;-81
2021/06/02 02:36:44;;;;;;;81.72;41.00;;;;;;;13.39;69.19;99770.97;4980810;28;20050;-81
2021/06/02 02:39:25;;;;;;;85.97;43.42;;;;;;;13.31;69.84;99772.00;4967137;28;20052;-79
2021/06/02 02:42:07;;;;;;;91.95;46.17;;;;;;;13.28;69.73;99772.06;4957701;28;20112;-80
2021/06/02 02:44:59;;;;;;;92.65;46.05;;;;;;;12.95;70.57;99781.34;4970193;28;20058;-80
2021/06/02 02:47:40;;;;;;;85.53;45.92;;;;;;;13.40;69.62;99770.09;4968966;28;20478;-80
2021/06/02 02:50:31;;;;;;;83.13;43.45;;;;;;;13.28;69.64;99764.22;4967319;28;20081;-81
2021/06/02 02:53:02;;;;;;;83.05;44.80;;;;;;;13.20;69.53;99769.56;4948988;28;20489;-81
2021/06/02 02:55:31;;;;;;;84.55;45.33;;;;;;;13.27;69.55;99765.09;4951080;28;20077;-80
2021/06/02 02:58:21;;;;;;;94.30;47.88;;;;;;;13.34;69.25;99764.06;4955557;28;20460;-80
2021/06/02 03:00:53;;;;;;;92.00;47.72;;;;;;;13.31;69.41;99764.13;4976090;28;20046;-80
2021/06/02 03:03:32;;;;;;;90.70;46.55;;;;;;;13.37;69.58;99769.28;4967826;28;20541;-79
2021/06/02 03:06:08;;;;;;;101.72;47.65;;;;;;;12.94;70.75;99772.59;4970754;28;20050;-80
2021/06/02 03:09:14;;;;;;;85.63;45.83;;;;;;;13.21;70.28;99762.56;4967569;28;20162;-80
2021/06/02 03:11:44;;;;;;;88.40;45.88;;;;;;;13.22;70.01;99764.31;4971131;28;20105;-81
2021/06/02 03:14:54;;;;;;;89.72;47.35;;;;;;;13.19;70.82;99767.00;5022814;28;20119;-81
2021/06/02 03:17:27;;;;;;;88.47;47.20;;;;;;;13.12;70.15;99760.97;4968154;28;20055;-81
2021/06/02 03:20:07;;;;;;;96.28;48.05;;;;;;;13.24;70.22;99757.25;4971605;28;20051;-80
2021/06/02 03:23:13;;;;;;;90.07;46.70;;;;;;;13.27;70.19;99752.84;4969372;28;20042;-81
2021/06/02 03:25:48;;;;;;;98.90;48.40;;;;;;;13.10;70.88;99758.31;4957730;28;20047;-80
2021/06/02 03:28:38;;;;;;;88.97;46.67;;;;;;;13.04;70.70;99758.41;4962621;28;20035;-80
2021/06/02 03:31:22;;;;;;;87.68;44.58;;;;;;;13.03;70.53;99761.09;4969203;28;20050;-80
2021/06/02 03:34:05;;;;;;;91.00;47.50;;;;;;;13.02;70.40;99764.59;4966986;28;20062;-80
2021/06/02 03:36:49;;;;;;;88.15;45.70;;;;;;;13.08;70.02;99765.38;4967206;28;20055;-81
2021/06/02 03:39:30;;;;;;;85.93;44.05;;;;;;;13.03;70.17;99763.72;4971280;28;20133;-81
2021/06/02 03:42:27;;;;;;;91.07;44.97;;;;;;;13.36;69.50;99759.69;4972440;28;20053;-81
2021/06/02 03:45:06;;;;;;;82.53;44.80;;;;;;;13.20;69.41;99752.94;4964161;28;20117;-80
2021/06/02 03:48:08;;;;;;;80.47;44.50;;;;;;;12.91;70.74;99759.50;4969713;28;20045;-81
2021/06/02 03:51:06;;;;;;;82.95;43.00;;;;;;;13.06;70.11;99754.03;4985402;28;20414;-81
2021/06/02 03:53:50;;;;;;;81.35;44.75;;;;;;;12.87;70.52;99752.59;4869940;29;20656;-81
2021/06/02 03:56:45;;;;;;;95.72;45.50;;;;;;;13.17;69.68;99738.16;4873425;29;20056;-81
2021/06/02 03:59:32;;;;;;;78.47;41.40;;;;;;;13.45;68.72;99735.91;4872645;29;20053;-80
2021/06/02 04:02:04;;;;;;;82.10;42.38;;;;;;;13.28;69.32;99740.59;4843042;29;20680;-80
2021/06/02 04:04:38;;;;;;;;;;;;;;;13.48;69.20;99735.81;4869361;29;20055;-81
2021/06/02 04:07:17;;;;;;;75.38;39.65;;;;;;;13.16;69.90;99738.16;4860962;29;20400;-80
2021/06/02 04:10:10;;;;;;;77.97;41.58;;;;;;;13.57;69.04;99740.06;4855635;29;20505;-81
2021/06/02 04:12:48;;;;;;;81.88;40.63;;;;;;;13.78;68.46;99739.63;4863690;29;20052;-80
2021/06/02 04:15:17;;;;;;;71.63;39.50;;;;;;;14.14;67.38;99732.78;4870032;29;20128;-81
2021/06/02 04:17:51;;;;;;;77.13;39.53;;;;;;;14.64;66.23;99732.53;4875738;29;20049;-81
2021/06/02 04:20:19;;;;;;;73.63;37.42;;;;;;;14.44;66.14;99726.00;4869384;29;20049;-82
2021/06/02 04:22:48;;;;;;;68.63;35.58;;;;;;;15.21;63.72;99722.34;4866809;29;20604;-80
2021/06/02 04:25:18;;;;;;;57.92;32.97;;;;;;;15.42;62.23;99720.94;4861871;29;20056;-80
2021/06/02 04:27:46;;;;;;;63.33;33.90;;;;;;;15.65;61.78;99728.25;4927311;29;20422;-81
2021/06/02 04:30:16;;;;;;;59.25;31.75;;;;;;;15.48;61.99;99726.06;4982334;28;20108;-80
2021/06/02 04:32:46;;;;;;;55.38;31.33;;;;;;;16.51;59.33;99725.69;5021171;28;20053;-80
2021/06/02 04:35:18;;;;;;;51.03;31.17;;;;;;;16.49;57.95;99727.53;5003754;28;20057;-80
2021/06/02 04:37:45;;;;;;;53.33;30.00;;;;;;;16.23;58.54;99732.72;5002946;28;20050;-80
2021/06/02 04:40:13;;;;;;;55.78;29.83;;;;;;;15.88;59.11;99727.59;5000982;28;20042;-80
2021/06/02 04:42:41;;;;;;;52.53;28.92;;;;;;;16.05;59.53;99726.22;5005816;28;20042;-81
2021/06/02 04:45:24;;;;;;;49.75;27.48;;;;;;;16.21;59.04;99720.50;5004378;28;20107;-81
2021/06/02 04:47:52;;;;;;;52.13;29.23;;;;;;;15.47;61.38;99731.34;5024043;28;20042;-80
2021/06/02 04:50:30;;;;;;;51.67;28.45;;;;;;;16.47;59.18;99725.84;5016432;28;20046;-80
2021/06/02 04:53:28;;;;;;;47.10;27.25;;;;;;;16.52;58.37;99735.34;5015315;28;20045;-80
2021/06/02 04:56:07;;;;;;;52.15;26.67;;;;;;;16.61;58.35;99728.94;5009644;28;20560;-80
2021/06/02 04:58:53;;;;;;;46.28;25.98;;;;;;;17.91;55.39;99728.94;5021824;28;20559;-81
2021/06/02 05:01:42;;;;;;;43.08;24.08;;;;;;;18.77;51.78;99732.69;5018725;28;20037;-80
2021/06/02 05:04:27;;;;;;;40.80;24.00;;;;;;;19.64;49.56;99748.47;5031403;28;20046;-82
2021/06/02 05:07:27;;;;;;;45.08;24.17;;;;;;;20.39;46.93;99738.00;5029836;28;20045;-82
2021/06/02 05:10:18;;;;;;;40.45;24.40;;;;;;;20.50;46.83;99750.78;5035226;28;21025;-82
2021/06/02 05:13:09;;;;;;;35.45;22.70;;;;;;;21.88;43.09;99747.38;5026831;28;20057;-82
2021/06/02 05:16:12;;;;;;;32.22;20.42;;;;;;;23.01;40.25;99742.09;5015835;28;20053;-81
2021/06/02 05:18:52;;;;;;;38.47;22.00;;;;;;;23.24;39.75;99746.06;5022649;28;20042;-81
2021/06/02 05:22:06;;;;;;;31.02;22.17;;;;;;;23.26;39.86;99750.34;4998997;28;20054;-81
2021/06/02 05:25:08;;;;;;;36.85;20.77;;;;;;;23.33;38.67;99746.41;5029289;28;20056;-81
2021/06/02 05:28:07;;;;;;;27.73;20.00;;;;;;;22.60;40.41;99745.25;5007226;28;20103;-82
2021/06/02 05:30:52;;;;;;;31.85;19.35;;;;;;;24.50;36.60;99757.94;5027053;28;20053;-81
2021/06/02 05:33:19;;;;;;;32.22;20.38;;;;;;;23.24;39.15;99749.59;5047318;28;20050;-79
2021/06/02 05:36:12;;;;;;;31.33;20.27;;;;;;;24.53;36.25;99749.72;5027936;28;20148;-80
2021/06/02 05:39:14;;;;;;;29.70;18.20;;;;;;;26.48;33.32;99751.59;5015588;28;20068;-81
2021/06/02 05:42:22;;;;;;;27.77;18.83;;;;;;;27.03;31.61;99757.47;4958974;28;20079;-80
2021/06/02 05:45:04;;;;;;;26.30;17.50;;;;;;;26.95;31.85;99759.88;5028877;28;20045;-79
2021/06/02 05:48:22;;;;;;;30.42;16.33;;;;;;;27.65;30.16;99760.81;5026787;28;20049;-80
2021/06/02 05:51:16;;;;;;;31.77;18.10;;;;;;;27.81;29.40;99764.03;5030328;28;20048;-81
2021/06/02 05:54:14;;;;;;;25.13;17.20;;;;;;;28.83;28.52;99769.38;5026791;28;20069;-80
2021/06/02 05:57:18;;;;;;;27.20;15.90;;;;;;;28.81;28.18;99765.97;5014125;28;20122;-81
2021/06/02 06:00:01;;;;;;;24.30;16.77;;;;;;;28.86;28.01;99764.63;5015289;28;20041;-80
2021/06/02 06:02:55;;;;;;;32.55;16.67;;;;;;;28.92;27.30;99764.09;5010320;28;20050;-79
2021/06/02 06:05:57;;;;;;;25.52;17.25;;;;;;;28.96;27.39;99757.50;5006279;28;20129;-75
2021/06/02 06:09:02;;;;;;;23.65;16.83;;;;;;;29.32;26.87;99759.00;5021103;28;20096;-77
2021/06/02 06:12:02;;;;;;;25.23;15.73;;;;;;;31.39;24.19;99763.13;5013330;28;20092;-76
2021/06/02 06:14:36;;;;;;;18.52;14.23;;;;;;;29.98;26.11;99754.25;5018710;28;20453;-77
2021/06/02 06:17:31;;;;;;;23.63;14.23;;;;;;;30.96;24.52;99759.94;5028978;28;20088;-75
2021/06/02 06:20:31;;;;;;;23.77;15.07;;;;;;;31.19;24.35;99764.13;5023505;28;20122;-75
2021/06/02 06:23:23;;;;;;;20.40;13.55;;;;;;;32.13;23.38;99759.84;5008240;28;20046;-75
2021/06/02 06:26:00;;;;;;;22.40;15.50;;;;;;;32.32;23.34;99754.38;5013601;28;20049;-76
2021/06/02 06:28:44;;;;;;;24.67;15.73;;;;;;;31.93;23.76;99765.25;5009556;28;20046;-76
2021/06/02 06:31:20;;;;;;;24.42;16.50;;;;;;;29.96;26.05;99748.16;5025197;28;20046;-76
2021/06/02 06:33:50;;;;;;;17.83;13.38;;;;;;;30.93;24.76;99763.78;5022189;28;20496;-74
2021/06/02 06:36:22;;;;;;;20.08;15.27;;;;;;;30.56;25.39;99763.50;5021044;28;20508;-76
2021/06/02 06:38:49;;;;;;;;;;;;;;;28.80;27.37;99761.56;5017779;28;20064;-76
2021/06/02 06:41:19;;;;;;;21.08;15.48;;;;;;;29.80;26.29;99762.06;5015858;28;19928;-75
2021/06/02 06:43:46;;;;;;;22.17;13.27;;;;;;;31.77;24.11;99770.41;5019972;28;20057;-75
2021/06/02 06:46:16;;;;;;;23.55;15.18;;;;;;;30.86;24.62;99759.06;5026978;28;20045;-76
2021/06/02 06:48:48;;;;;;;21.02;13.32;;;;;;;33.02;22.49;99761.84;5013975;28;20145;-77
2021/06/02 06:51:19;;;;;;;21.33;13.35;;;;;;;34.05;21.52;99767.56;5022545;28;20111;-77
2021/06/02 06:53:50;;;;;;;23.83;15.73;;;;;;;34.13;21.21;99766.78;5020020;28;20053;-77
2021/06/02 06:56:19;;;;;;;22.15;12.95;;;;;;;35.09;19.66;99765.56;5040669;28;20569;-76
2021/06/02 06:58:46;;;;;;;21.35;13.98;;;;;;;32.42;22.12;99752.47;5007725;28;20200;-76
2021/06/02 07:01:17;;;;;;;24.98;12.52;;;;;;;34.51;20.53;99760.06;5008495;28;20046;-76
2021/06/02 07:03:48;;;;;;;23.10;13.35;;;;;;;35.08;19.59;99755.72;5039912;28;20405;-75
2021/06/02 07:06:17;;;;;;;24.55;14.43;;;;;;;33.11;21.58;99755.53;5007648;28;20069;-78
2021/06/02 07:08:45;;;;;;;19.33;11.98;;;;;;;33.46;21.48;99751.16;5023307;28;20153;-76
2021/06/02 07:11:17;;;;;;;18.83;11.93;;;;;;;33.27;21.65;99752.16;5006103;28;20038;-75
2021/06/02 07:13:47;;;;;;;19.25;10.73;;;;;;;34.33;20.90;99754.72;5008754;28;20508;-77
2021/06/02 07:16:16;;;;;;;22.90;14.23;;;;;;;32.68;22.48;99755.34;5035107;28;20120;-76
2021/06/02 07:18:47;;;;;;;17.05;12.82;;;;;;;33.53;21.74;99758.47;5032405;28;20057;-76
2021/06/02 07:21:18;;;;;;;18.83;12.00;;;;;;;34.42;20.26;99755.63;5033025;28;20042;-75
2021/06/02 07:23:45;;;;;;;16.27;10.27;;;;;;;36.96;18.17;99766.25;4984469;28;20574;-76
2021/06/02 07:26:12;;;;;;;22.40;12.68;;;;;;;33.37;21.30;99758.34;5024424;28;20309;-77
2021/06/02 07:28:59;;;;;;;21.67;12.88;;;;;;;33.25;21.50;99754.16;5013680;28;20056;-76
2021/06/02 07:31:26;;;;;;;17.60;11.65;;;;;;;35.54;19.29;99761.59;5022041;28;20058;-76
2021/06/02 07:33:53;;;;;;;22.95;12.93;;;;;;;35.06;19.32;99751.47;5040337;28;20052;-74
2021/06/02 07:36:20;;;;;;;20.98;11.18;;;;;;;36.03;19.25;99763.28;5006251;28;20128;-76
2021/06/02 07:38:48;;;;;;;22.58;13.45;;;;;;;34.02;20.74;99756.19;5005532;28;20383;-75
2021/06/02 07:41:14;;;;;;;23.70;12.13;;;;;;;35.11;19.80;99752.66;5005567;28;20489;-76
2021/06/02 07:43:41;;;;;;;18.30;9.82;;;;;;;36.50;18.29;99762.53;5014945;28;20104;-76
2021/06/02 07:46:08;;;;;;;21.52;12.23;;;;;;;35.04;19.81;99748.91;5023354;28;20046;-78
2021/06/02 07:48:35;;;;;;;24.08;12.73;;;;;;;35.45;19.07;99752.56;5023258;28;20048;-76
2021/06/02 07:51:02;;;;;;;20.25;11.68;;;;;;;34.39;20.69;99745.91;5019767;28;20412;-77
2021/06/02 07:53:29;;;;;;;17.52;9.77;;;;;;;37.07;18.06;99744.09;5025652;28;20045;-75
2021/06/02 07:55:56;;;;;;;21.45;12.43;;;;;;;37.09;17.27;99748.31;5015908;28;20049;-76
2021/06/02 07:58:23;;;;;;;21.30;11.63;;;;;;;35.95;18.81;99741.53;5025113;28;20503;-75
2021/06/02 08:00:50;;;;;;;18.63;9.43;;;;;;;36.93;18.33;99742.09;5021931;28;20174;-76
2021/06/02 08:03:17;;;;;;;15.10;8.80;;;;;;;39.01;16.69;99750.38;5021803;28;20065;-75
2021/06/02 08:05:45;;;;;;;22.02;10.38;;;;;;;38.97;16.14;99756.44;5022178;28;20077;-74
2021/06/02 08:08:11;;;;;;;20.08;11.93;;;;;;;37.62;17.09;99749.31;5014691;28;20049;-75
2021/06/02 08:10:38;;;;;;;15.27;8.43;;;;;;;38.76;16.67;99747.09;5032706;28;20041;-76
2021/06/02 08:13:05;;;;;;;21.65;11.27;;;;;;;38.39;16.71;99741.75;5024884;28;20045;-74
2021/06/02 08:15:32;;;;;;;19.48;11.45;;;;;;;37.60;17.06;99740.50;5024649;28;20061;-76
2021/06/02 08:17:59;;;;;;;16.70;10.30;;;;;;;37.03;18.24;99740.81;5027775;28;20050;-77
2021/06/02 08:20:26;;;;;;;18.63;11.55;;;;;;;38.52;17.05;99752.88;5026888;28;20377;-76
2021/06/02 08:22:53;;;;;;;16.02;10.77;;;;;;;38.23;17.24;99744.66;5016208;28;20107;-76
2021/06/02 08:25:20;;;;;;;24.70;12.52;;;;;;;36.99;17.97;99741.38;5009948;28;20045;-77
2021/06/02 08:27:47;;;;;;;18.42;10.43;;;;;;;38.67;16.93;99748.25;5029893;28;20112;-76
2021/06/02 08:30:15;;;;;;;22.60;10.45;;;;;;;38.76;16.44;99749.84;5004718;28;20057;-76
2021/06/02 08:32:43;;;;;;;20.30;11.27;;;;;;;37.63;17.04;99740.13;5009210;28;20065;-74
2021/06/02 08:35:11;;;;;;;19.45;10.40;;;;;;;36.09;19.40;99740.84;5007562;28;20460;-74
2021/06/02 08:37:40;;;;;;;18.88;8.88;;;;;;;38.71;16.87;99745.97;5035215;28;20598;-75
2021/06/02 08:40:08;;;;;;;19.45;11.00;;;;;;;38.39;16.92;99752.66;5016135;28;20068;-77
2021/06/02 08:42:35;;;;;;;19.25;10.88;;;;;;;36.89;18.50;99738.03;5011628;28;20041;-75
2021/06/02 08:45:03;;;;;;;21.30;10.57;;;;;;;37.09;18.21;99728.41;5016388;28;20145;-74
2021/06/02 08:47:30;;;;;;;18.15;10.18;;;;;;;37.10;18.32;99736.41;5009384;28;20096;-74
2021/06/02 08:49:57;;;;;;;18.92;10.75;;;;;;;36.10;18.87;99731.66;5006729;28;20115;-75
2021/06/02 08:52:25;;;;;;;23.75;10.48;;;;;;;34.99;20.90;99732.28;5006754;28;20108;-76
2021/06/02 08:54:54;;;;;;;19.73;9.25;;;;;;;36.64;19.19;99740.88;5025498;28;20048;-77
2021/06/02 08:57:22;;;;;;;19.52;11.63;;;;;;;36.17;19.50;99740.84;5025551;28;20093;-76
2021/06/02 08:59:50;;;;;;;16.17;8.18;;;;;;;38.09;17.93;99743.63;5021157;28;20060;-77
2021/06/02 09:02:17;;;;;;;17.92;10.52;;;;;;;37.40;17.97;99747.44;5034394;28;20135;-76
2021/06/02 09:04:44;;;;;;;15.32;7.80;;;;;;;38.19;18.04;99746.06;5005508;28;20116;-76
2021/06/02 09:07:14;;;;;;;22.38;10.65;;;;;;;38.31;17.58;99744.59;5003353;28;20049;-75
2021/06/02 09:09:41;;;;;;;17.75;8.77;;;;;;;41.02;15.13;99760.63;5006072;28;20049;-74
2021/06/02 09:12:10;;;;;;;15.77;9.63;;;;;;;37.10;18.17;99754.63;5007392;28;20041;-78
2021/06/02 09:14:38;;;;;;;15.52;9.20;;;;;;;36.56;19.10;99746.31;5017004;28;20046;-76
2021/06/02 09:17:12;;;;;;;24.92;10.40;;;;;;;36.28;19.31;99750.50;5017262;28;20053;-75
2021/06/02 09:19:44;;;;;;;22.10;11.25;;;;;;;36.72;19.36;99748.16;5019565;28;20132;-76
2021/06/02 09:22:19;;;;;;;16.33;10.40;;;;;;;37.54;17.95;99739.34;5013262;28;20103;-79
2021/06/02 09:24:53;;;;;;;17.33;9.00;;;;;;;37.20;18.50;99748.94;5024895;28;20103;-76
2021/06/02 09:27:39;;;;;;;23.63;11.88;;;;;;;38.13;17.84;99744.94;5020386;28;20054;-77
2021/06/02 09:30:09;;;;;;;16.23;10.15;;;;;;;35.03;20.83;99739.06;5014901;28;20049;-75
2021/06/02 09:32:44;;;;;;;22.13;10.05;;;;;;;35.25;20.82;99738.44;5021059;28;20041;-75
2021/06/02 09:35:11;;;;;;;19.98;9.95;;;;;;;37.37;18.92;99745.91;5019641;28;20048;-74
2021/06/02 09:37:51;;;;;;;23.90;9.35;;;;;;;36.41;20.13;99731.75;5020721;28;20386;-76
2021/06/02 09:40:38;;;;;;;19.58;8.82;;;;;;;36.61;20.39;99748.53;5041757;28;20061;-74
2021/06/02 09:43:06;;;;;;;21.60;9.82;;;;;;;35.67;21.22;99740.22;5010733;28;20049;-78
2021/06/02 09:45:34;;;;;;;16.75;8.95;;;;;;;38.12;18.55;99739.69;5018516;28;20061;-76
2021/06/02 09:48:05;;;;;;;20.55;8.73;;;;;;;39.87;16.86;99743.91;5004588;28;20388;-77
2021/06/02 09:50:38;;;;;;;15.05;8.48;;;;;;;39.34;17.39;99736.25;5025889;28;22150;-76
2021/06/02 09:53:07;;;;;;;18.50;9.55;;;;;;;38.34;18.30;99728.66;5026166;28;20385;-77
2021/06/02 09:55:38;;;;;;;18.63;8.95;;;;;;;37.27;18.89;99728.13;5028419;28;20385;-76
2021/06/02 09:58:06;;;;;;;19.80;7.55;;;;;;;38.53;18.00;99727.28;5013612;28;20188;-75
2021/06/02 10:00:40;;;;;;;23.17;8.73;;;;;;;37.23;19.32;99724.91;5024748;28;20484;-76
2021/06/02 10:03:16;;;;;;;24.15;8.07;;;;;;;37.58;19.25;99722.63;5030760;28;20491;-75
2021/06/02 10:05:45;;;;;;;18.00;7.03;;;;;;;40.66;16.32;99743.63;5014805;28;20495;-76
2021/06/02 10:08:25;;;;;;;18.63;8.82;;;;;;;37.63;18.48;99736.53;5007523;28;20061;-76
2021/06/02 10:10:53;;;;;;;26.35;9.07;;;;;;;37.43;18.82;99723.38;5013151;28;20104;-73
2021/06/02 10:13:21;;;;;;;17.50;8.00;;;;;;;36.47;19.56;99724.75;5009312;28;20072;-77
2021/06/02 10:15:50;;;;;;;18.33;8.57;;;;;;;37.33;19.13;99719.19;5012815;28;20050;-74
2021/06/02 10:18:30;;;;;;;22.90;7.70;;;;;;;37.52;19.17;99718.69;5014782;28;20724;-78
2021/06/02 10:21:01;;;;;;;19.38;8.90;;;;;;;36.08;20.16;99719.22;5010157;28;20397;-74
2021/06/02 10:23:31;;;;;;;21.60;9.48;;;;;;;34.84;21.73;99709.50;5012798;28;20046;-78
2021/06/02 10:26:00;;;;;;;23.20;10.43;;;;;;;35.08;20.65;99701.41;5010627;28;20048;-77
2021/06/02 10:28:28;;;;;;;21.88;9.52;;;;;;;34.75;21.80;99699.63;5022063;28;20046;-74
2021/06/02 10:30:54;;;;;;;21.42;9.95;;;;;;;34.14;22.46;99689.84;5026498;28;20559;-77
2021/06/02 10:33:22;;;;;;;25.15;9.65;;;;;;;34.42;22.16;99695.94;5026342;28;20471;-75
2021/06/02 10:35:49;;;;;;;19.38;8.85;;;;;;;32.43;24.74;99678.44;5003878;28;20069;-77
2021/06/02 10:38:17;;;;;;;20.48;9.32;;;;;;;32.47;25.24;99681.72;5008444;28;20049;-76
2021/06/02 10:40:45;;;;;;;20.80;9.77;;;;;;;32.91;24.38;99674.59;5036932;28;20061;-75
2021/06/02 10:43:19;;;;;;;18.15;9.88;;;;;;;32.69;24.68;99678.59;5023182;28;20054;-75
2021/06/02 10:45:59;;;;;;;20.25;9.20;;;;;;;32.31;25.67;99685.06;5011844;28;20531;-77
